Stigler, Oklahoma
Current Conditions -  °F | °C
As of 8:35 AM on Saturday 20 Dec 2014 (Local Time) from KGZL Reporting Station
Moderate Fog Moderate Fog  
Wind Chill: 41°   Ceiling: 300
Heat Index: 41°   Visibility: 0.25mi
Dew Point: 41°   Wind: 0mph
Humidity: 100%   Direction: NA
Pressure: 30.25"   Gusts: NA
Location:  35.25°N, 95.12°W
Report Text: KGZL 201435Z AUTO 00000KT 1/4SM FG OVC003 05/05 A3025 RMK AO2
Loading
Personal Weather Stations






























Interactive Weather Map New forecast layout! Learn more

10-Day Weather Forecast

Advertisements
Track Severe Weather on mobile